Time;durP1;ratioP1;P1;durP2;ratioP2;P2;SDS_P1;SDS_P2;PMS_P1;PMS_P2;Temp;Humidity;BMP_temperature;BMP_pressure;BME280_temperature;BME280_humidity;BME280_pressure;Samples;Min_cycle;Max_cycle;Signal;HPM_P1;HPM_P2
2021/06/18 00:00:48;;;;;;;1.20;0.95;;;17.50;83.00;;;;;;5032045;28;20128;-64
2021/06/18 00:03:14;;;;;;;0.75;0.75;;;17.40;83.00;;;;;;5032327;28;20053;-64
2021/06/18 00:05:41;;;;;;;1.00;0.90;;;17.50;82.80;;;;;;5031878;28;20076;-63
2021/06/18 00:08:07;;;;;;;0.80;0.70;;;17.50;83.00;;;;;;5031803;28;20501;-63
2021/06/18 00:10:34;;;;;;;0.60;0.60;;;17.50;82.80;;;;;;5031799;28;20164;-64
2021/06/18 00:13:00;;;;;;;0.82;0.60;;;17.50;83.00;;;;;;5033012;28;20103;-64
2021/06/18 00:15:27;;;;;;;0.68;0.68;;;17.50;82.90;;;;;;5036064;28;20045;-63
2021/06/18 00:17:54;;;;;;;1.10;0.80;;;17.50;83.40;;;;;;5036197;28;20050;-63
2021/06/18 00:20:20;;;;;;;0.63;0.63;;;17.40;83.60;;;;;;5034974;28;20061;-64
2021/06/18 00:22:47;;;;;;;0.90;0.65;;;17.50;83.40;;;;;;5034681;28;20394;-63
2021/06/18 00:25:14;;;;;;;0.70;0.70;;;17.40;83.60;;;;;;5055365;28;20130;-63
2021/06/18 00:27:41;;;;;;;0.60;0.60;;;17.40;84.00;;;;;;5051941;28;20060;-63
2021/06/18 00:30:09;;;;;;;0.80;0.80;;;17.50;83.90;;;;;;5042524;28;20046;-64
2021/06/18 00:32:35;;;;;;;0.50;0.50;;;17.50;84.10;;;;;;5048064;28;20045;-63
2021/06/18 00:35:02;;;;;;;0.70;0.70;;;17.40;84.20;;;;;;5037007;28;20133;-63
2021/06/18 00:37:28;;;;;;;0.57;0.57;;;17.40;84.50;;;;;;5035515;28;20188;-64
2021/06/18 00:39:55;;;;;;;0.70;0.70;;;17.50;84.40;;;;;;5038068;28;20139;-64
2021/06/18 00:42:22;;;;;;;0.40;0.40;;;17.50;84.50;;;;;;5046507;28;20125;-63
2021/06/18 00:44:48;;;;;;;0.93;0.82;;;17.50;84.20;;;;;;5034999;28;20060;-63
2021/06/18 00:47:21;;;;;;;0.68;0.68;;;17.50;84.50;;;;;;5035647;28;20045;-63
2021/06/18 00:49:48;;;;;;;0.70;0.70;;;17.50;84.60;;;;;;5035205;28;20183;-63
2021/06/18 00:52:15;;;;;;;0.70;0.70;;;17.40;84.90;;;;;;5041333;28;20061;-63
2021/06/18 00:54:44;;;;;;;0.50;0.50;;;17.30;85.60;;;;;;5055215;28;20132;-63
2021/06/18 00:57:10;;;;;;;0.70;0.70;;;17.30;85.80;;;;;;5055247;28;20581;-63
2021/06/18 00:59:37;;;;;;;0.73;0.60;;;17.40;85.40;;;;;;5045069;28;20524;-63
2021/06/18 01:02:03;;;;;;;0.65;0.65;;;17.40;85.30;;;;;;5035176;28;20045;-63
2021/06/18 01:04:33;;;;;;;0.50;0.50;;;17.40;85.90;;;;;;5035326;28;20046;-64
2021/06/18 01:07:08;;;;;;;0.70;0.70;;;17.40;85.50;;;;;;5035055;28;20084;-63
2021/06/18 01:10:06;;;;;;;0.57;0.57;;;17.50;85.60;;;;;;5035143;28;20099;-64
2021/06/18 01:12:42;;;;;;;0.98;0.80;;;17.30;86.30;;;;;;5053555;28;20041;-64
2021/06/18 01:15:11;;;;;;;0.50;0.50;;;17.40;86.30;;;;;;5039586;28;20065;-63
2021/06/18 01:17:49;;;;;;;0.60;0.60;;;17.40;86.30;;;;;;5054985;28;20045;-64
2021/06/18 01:20:43;;;;;;;0.50;0.50;;;17.40;86.00;;;;;;5047836;28;20087;-63
2021/06/18 01:23:29;;;;;;;0.70;0.70;;;17.50;85.70;;;;;;5031077;28;20049;-64
2021/06/18 01:26:22;;;;;;;0.47;0.47;;;17.50;85.90;;;;;;5054574;28;20100;-63
2021/06/18 01:28:59;;;;;;;0.60;0.60;;;17.40;86.40;;;;;;5054493;28;20481;-64
2021/06/18 01:31:28;;;;;;;0.60;0.60;;;17.40;86.30;;;;;;5051928;28;20485;-63
2021/06/18 01:34:00;;;;;;;0.60;0.60;;;17.50;85.70;;;;;;5033921;28;20123;-64
2021/06/18 01:36:30;;;;;;;0.50;0.50;;;17.50;86.00;;;;;;5034616;28;20045;-63
2021/06/18 01:38:58;;;;;;;0.50;0.50;;;17.50;86.10;;;;;;5045303;28;20500;-64
2021/06/18 01:41:28;;;;;;;0.60;0.60;;;17.50;86.00;;;;;;5054001;28;20505;-64
2021/06/18 01:43:55;;;;;;;0.70;0.70;;;17.50;85.90;;;;;;5054472;28;20056;-63
2021/06/18 01:46:26;;;;;;;0.55;0.55;;;17.50;86.10;;;;;;5054431;28;20195;-63
2021/06/18 01:49:02;;;;;;;0.55;0.50;;;17.50;86.30;;;;;;5054222;28;20053;-64
2021/06/18 01:51:31;;;;;;;0.50;0.50;;;17.50;86.20;;;;;;5048987;28;20077;-64
2021/06/18 01:53:59;;;;;;;1.10;0.47;;;17.50;86.10;;;;;;5054091;28;20056;-64
2021/06/18 01:56:27;;;;;;;0.60;0.60;;;17.50;86.10;;;;;;5054495;28;20174;-64
2021/06/18 01:58:57;;;;;;;0.55;0.55;;;17.40;86.40;;;;;;5054162;28;20056;-64
2021/06/18 02:01:28;;;;;;;0.50;0.50;;;17.40;86.40;;;;;;5054268;28;20098;-64
2021/06/18 02:03:55;;;;;;;0.40;0.40;;;17.40;86.30;;;;;;5054220;28;20874;-63
2021/06/18 02:06:22;;;;;;;0.80;0.50;;;17.40;86.50;;;;;;5054015;28;20103;-63
2021/06/18 02:08:53;;;;;;;0.50;0.50;;;17.40;86.40;;;;;;5044851;28;20424;-63
2021/06/18 02:11:24;;;;;;;0.28;0.28;;;17.50;85.90;;;;;;5051901;28;20041;-63
2021/06/18 02:13:53;;;;;;;0.30;0.30;;;17.40;85.70;;;;;;5046589;28;20571;-63
2021/06/18 02:16:23;;;;;;;0.40;0.40;;;17.30;86.50;;;;;;5054160;28;20084;-63
2021/06/18 02:18:51;;;;;;;0.40;0.40;;;17.30;87.10;;;;;;5053825;28;20155;-63
2021/06/18 02:21:18;;;;;;;0.40;0.40;;;17.40;86.20;;;;;;5048062;28;20049;-63
2021/06/18 02:23:46;;;;;;;0.40;0.40;;;17.30;86.50;;;;;;5053475;28;20053;-63
2021/06/18 02:26:12;;;;;;;0.70;0.30;;;17.30;86.90;;;;;;5054009;28;20198;-63
2021/06/18 02:28:38;;;;;;;0.30;0.30;;;17.30;86.80;;;;;;5053722;28;20132;-63
2021/06/18 02:31:06;;;;;;;0.30;0.30;;;17.40;86.40;;;;;;5053108;28;20110;-63
2021/06/18 02:33:32;;;;;;;0.40;0.40;;;17.30;86.70;;;;;;5044966;28;20042;-63
2021/06/18 02:35:58;;;;;;;0.20;0.20;;;17.30;86.50;;;;;;5033099;28;20049;-63
2021/06/18 02:38:25;;;;;;;0.20;0.20;;;17.20;86.90;;;;;;5039975;28;20068;-64
2021/06/18 02:40:51;;;;;;;0.25;0.25;;;17.30;87.20;;;;;;5047496;28;20087;-63
2021/06/18 02:43:17;;;;;;;0.30;0.30;;;17.30;87.00;;;;;;5044689;28;20618;-63
2021/06/18 02:45:44;;;;;;;0.20;0.20;;;17.30;87.00;;;;;;5052881;28;20124;-63
2021/06/18 02:48:20;;;;;;;0.10;0.10;;;17.20;87.50;;;;;;5052866;28;20128;-63
2021/06/18 02:50:57;;;;;;;0.25;0.25;;;17.20;87.50;;;;;;5046666;28;20174;-63
2021/06/18 02:53:33;;;;;;;0.30;0.30;;;17.10;88.10;;;;;;5043066;28;20400;-63
2021/06/18 02:56:07;;;;;;;0.30;0.30;;;17.20;87.90;;;;;;5053105;28;20574;-63
2021/06/18 02:59:00;;;;;;;0.10;0.10;;;17.30;87.70;;;;;;5053144;28;20051;-63
2021/06/18 03:01:30;;;;;;;0.10;0.10;;;17.20;87.70;;;;;;5052091;28;20106;-63
2021/06/18 03:04:00;;;;;;;0.22;0.22;;;17.20;87.80;;;;;;5053119;28;20140;-63
2021/06/18 03:06:28;;;;;;;0.20;0.20;;;17.20;87.70;;;;;;5053322;28;20175;-63
2021/06/18 03:09:00;;;;;;;0.10;0.10;;;17.20;87.70;;;;;;5052725;28;20158;-63
2021/06/18 03:11:35;;;;;;;0.15;0.15;;;17.20;87.80;;;;;;5052723;28;20468;-64
2021/06/18 03:14:08;;;;;;;0.30;0.10;;;17.10;88.00;;;;;;5024126;28;20048;-64
2021/06/18 03:16:37;;;;;;;0.20;0.20;;;17.10;88.40;;;;;;5045676;28;20044;-63
2021/06/18 03:19:07;;;;;;;0.30;0.20;;;17.10;88.30;;;;;;5052872;28;20056;-63
2021/06/18 03:21:36;;;;;;;0.20;0.20;;;17.10;88.50;;;;;;5040224;28;20160;-63
2021/06/18 03:24:04;;;;;;;0.40;0.30;;;17.10;88.80;;;;;;5050943;28;20548;-64
2021/06/18 03:26:31;;;;;;;0.20;0.20;;;17.10;89.00;;;;;;5034228;28;20045;-63
2021/06/18 03:28:59;;;;;;;0.25;0.25;;;17.10;88.70;;;;;;5052374;28;20107;-63
2021/06/18 03:31:27;;;;;;;0.05;0.05;;;17.20;88.40;;;;;;5052469;28;20056;-63
2021/06/18 03:33:55;;;;;;;0.20;0.20;;;17.20;88.40;;;;;;5041278;28;20076;-63
2021/06/18 03:36:25;;;;;;;0.10;0.10;;;17.10;89.00;;;;;;5036200;28;20045;-64
2021/06/18 03:38:53;;;;;;;0.17;0.17;;;17.20;88.80;;;;;;5051647;28;20062;-63
2021/06/18 03:41:21;;;;;;;0.10;0.10;;;17.20;89.10;;;;;;5051896;28;20052;-63
2021/06/18 03:43:49;;;;;;;0.10;0.10;;;17.20;88.70;;;;;;5041280;28;20103;-63
2021/06/18 03:46:17;;;;;;;0.22;0.10;;;17.20;88.60;;;;;;5052265;28;20053;-63
2021/06/18 03:48:45;;;;;;;0.08;0.08;;;17.20;88.70;;;;;;5051378;28;20048;-63
2021/06/18 03:51:12;;;;;;;0.10;0.10;;;17.20;89.00;;;;;;5052195;28;20132;-63
2021/06/18 03:53:38;;;;;;;0.10;0.10;;;17.10;89.30;;;;;;5024507;28;20130;-63
2021/06/18 03:56:06;;;;;;;0.20;0.20;;;17.10;89.70;;;;;;5052260;28;20115;-63
2021/06/18 03:58:35;;;;;;;0.13;0.05;;;17.10;90.00;;;;;;5050709;28;20388;-63
2021/06/18 04:01:04;;;;;;;0.10;0.10;;;17.00;90.10;;;;;;5052240;28;20044;-63
2021/06/18 04:03:32;;;;;;;0.13;0.10;;;17.00;90.30;;;;;;5052150;28;20056;-63
2021/06/18 04:06:02;;;;;;;0.00;0.00;;;17.00;90.40;;;;;;5052135;28;20084;-63
2021/06/18 04:08:29;;;;;;;0.00;0.00;;;17.00;90.40;;;;;;5051868;28;20398;-64
2021/06/18 04:10:56;;;;;;;0.03;0.03;;;17.00;90.40;;;;;;5051223;28;20041;-64
2021/06/18 04:13:23;;;;;;;0.10;0.10;;;17.00;90.40;;;;;;5045632;28;20052;-63
2021/06/18 04:15:50;;;;;;;0.03;0.03;;;17.00;90.40;;;;;;5050866;28;20147;-63
2021/06/18 04:18:21;;;;;;;0.03;0.03;;;17.00;90.60;;;;;;5050897;28;20128;-64
2021/06/18 04:20:51;;;;;;;0.10;0.10;;;17.10;90.50;;;;;;5039721;28;20132;-64
2021/06/18 04:23:28;;;;;;;0.10;0.10;;;17.20;90.20;;;;;;5036139;28;20089;-69
2021/06/18 04:25:58;;;;;;;0.00;0.00;;;17.20;90.20;;;;;;5040763;28;20133;-69
2021/06/18 04:28:25;;;;;;;0.00;0.00;;;17.30;89.80;;;;;;5039221;28;20044;-69
2021/06/18 04:30:52;;;;;;;0.00;0.00;;;17.40;89.50;;;;;;5042088;28;20059;-69
2021/06/18 04:33:18;;;;;;;0.00;0.00;;;17.40;90.10;;;;;;5041928;28;20041;-69
2021/06/18 04:35:45;;;;;;;0.10;0.10;;;17.40;89.30;;;;;;5030455;28;20222;-69
2021/06/18 04:38:11;;;;;;;0.00;0.00;;;17.40;89.30;;;;;;5030609;28;20524;-69
2021/06/18 04:40:38;;;;;;;0.00;0.00;;;17.50;89.20;;;;;;5032384;28;20102;-69
2021/06/18 04:43:04;;;;;;;0.00;0.00;;;17.50;89.00;;;;;;5031159;28;20135;-69
2021/06/18 04:45:31;;;;;;;0.10;0.03;;;17.50;89.50;;;;;;5031328;28;20136;-69
2021/06/18 04:47:58;;;;;;;0.00;0.00;;;17.50;89.00;;;;;;5031832;28;20162;-69
2021/06/18 04:50:25;;;;;;;0.00;0.00;;;17.50;89.00;;;;;;5034136;28;20124;-69
2021/06/18 04:52:52;;;;;;;0.80;0.10;;;17.50;89.00;;;;;;5032111;28;20056;-69
2021/06/18 04:55:19;;;;;;;0.00;0.00;;;17.50;88.90;;;;;;5033970;28;20480;-69
2021/06/18 04:57:46;;;;;;;0.00;0.00;;;17.50;88.70;;;;;;5012442;28;20089;-69
2021/06/18 05:00:15;;;;;;;0.00;0.00;;;17.60;88.60;;;;;;5034807;28;20187;-69
2021/06/18 05:02:42;;;;;;;0.05;0.05;;;17.70;88.40;;;;;;5028071;28;20144;-70
2021/06/18 05:05:09;;;;;;;0.00;0.00;;;17.70;88.10;;;;;;5034317;28;20105;-69
2021/06/18 05:07:35;;;;;;;0.00;0.00;;;17.70;87.80;;;;;;5037601;28;20045;-69
2021/06/18 05:10:02;;;;;;;0.00;0.00;;;17.80;87.60;;;;;;5044392;28;20168;-69
2021/06/18 05:12:28;;;;;;;0.00;0.00;;;17.80;87.60;;;;;;5037266;28;20077;-69
2021/06/18 05:14:55;;;;;;;0.00;0.00;;;17.80;87.50;;;;;;5035353;28;20045;-69
2021/06/18 05:17:21;;;;;;;0.00;0.00;;;17.80;87.50;;;;;;5036427;28;20496;-70
2021/06/18 05:19:47;;;;;;;0.00;0.00;;;17.70;87.40;;;;;;5036904;28;20128;-70
2021/06/18 05:22:14;;;;;;;0.00;0.00;;;17.80;87.60;;;;;;5039940;28;20044;-70
2021/06/18 05:24:40;;;;;;;0.00;0.00;;;17.80;87.40;;;;;;5046992;28;20049;-69
2021/06/18 05:27:06;;;;;;;0.00;0.00;;;17.80;87.50;;;;;;5037697;28;20045;-69
2021/06/18 05:29:35;;;;;;;0.00;0.00;;;17.70;87.60;;;;;;5041905;28;20173;-68
2021/06/18 05:32:03;;;;;;;0.00;0.00;;;17.70;87.70;;;;;;5047896;28;20136;-69
2021/06/18 05:34:30;;;;;;;0.08;0.08;;;17.70;87.70;;;;;;5036120;28;20124;-69
2021/06/18 05:36:56;;;;;;;0.00;0.00;;;17.70;87.70;;;;;;5043684;28;20046;-68
2021/06/18 05:39:23;;;;;;;0.00;0.00;;;17.80;87.60;;;;;;5035728;28;20128;-71
2021/06/18 05:41:49;;;;;;;0.00;0.00;;;17.80;87.60;;;;;;5034461;28;20060;-71
2021/06/18 05:44:15;;;;;;;0.00;0.00;;;17.80;87.70;;;;;;5024217;28;20054;-69
2021/06/18 05:46:42;;;;;;;0.00;0.00;;;17.70;87.70;;;;;;5038421;28;20060;-69
2021/06/18 05:49:08;;;;;;;0.00;0.00;;;17.80;87.90;;;;;;5043886;28;20415;-69
2021/06/18 05:51:34;;;;;;;0.00;0.00;;;17.80;88.00;;;;;;5042870;28;20167;-69
2021/06/18 05:54:01;;;;;;;0.00;0.00;;;17.80;87.90;;;;;;5036483;28;20116;-70
2021/06/18 05:56:27;;;;;;;0.00;0.00;;;17.90;87.70;;;;;;5045953;28;20122;-69
2021/06/18 05:58:54;;;;;;;0.20;0.00;;;17.90;87.40;;;;;;5051073;28;20132;-70
2021/06/18 06:01:20;;;;;;;0.00;0.00;;;18.00;87.40;;;;;;5040184;28;20084;-69
2021/06/18 06:03:47;;;;;;;0.00;0.00;;;18.00;87.30;;;;;;5031585;28;20148;-68
2021/06/18 06:06:13;;;;;;;0.00;0.00;;;18.00;87.20;;;;;;5039771;28;20115;-68
2021/06/18 06:08:39;;;;;;;0.00;0.00;;;18.10;87.00;;;;;;5045209;28;20416;-68
2021/06/18 06:11:06;;;;;;;0.00;0.00;;;18.10;86.80;;;;;;5029456;28;20405;-68
2021/06/18 06:13:32;;;;;;;0.00;0.00;;;18.10;86.80;;;;;;5026363;28;20041;-68
2021/06/18 06:15:58;;;;;;;0.00;0.00;;;18.20;86.80;;;;;;5035946;28;20485;-68
2021/06/18 06:18:25;;;;;;;0.45;0.03;;;18.20;86.80;;;;;;5034212;28;20049;-68
2021/06/18 06:20:51;;;;;;;0.00;0.00;;;18.20;86.80;;;;;;5031949;28;20437;-68
2021/06/18 06:23:17;;;;;;;0.00;0.00;;;18.20;86.60;;;;;;5030114;28;20140;-68
2021/06/18 06:25:44;;;;;;;0.00;0.00;;;18.30;86.40;;;;;;5032588;28;20104;-68
2021/06/18 06:28:10;;;;;;;0.00;0.00;;;18.30;86.30;;;;;;5030267;28;20053;-68
2021/06/18 06:30:37;;;;;;;0.00;0.00;;;18.30;86.10;;;;;;5031042;28;20098;-68
2021/06/18 06:33:04;;;;;;;0.00;0.00;;;18.30;86.20;;;;;;5030170;28;20123;-68
2021/06/18 06:35:31;;;;;;;0.00;0.00;;;18.40;86.10;;;;;;5039720;28;20222;-68
2021/06/18 06:37:58;;;;;;;0.00;0.00;;;18.40;85.90;;;;;;5033399;28;20056;-68
2021/06/18 06:40:24;;;;;;;0.00;0.00;;;18.40;85.70;;;;;;5038575;28;20091;-68
2021/06/18 06:42:51;;;;;;;0.00;0.00;;;18.50;85.50;;;;;;5035591;28;20053;-68
2021/06/18 06:45:18;;;;;;;0.00;0.00;;;18.40;85.40;;;;;;5037023;28;20168;-69
2021/06/18 06:47:49;;;;;;;0.00;0.00;;;18.40;85.40;;;;;;5028714;28;20140;-68
2021/06/18 06:50:15;;;;;;;0.00;0.00;;;18.40;85.40;;;;;;5034975;28;20507;-67
2021/06/18 06:52:42;;;;;;;0.00;0.00;;;18.40;85.40;;;;;;5034537;28;20054;-67
2021/06/18 06:55:09;;;;;;;0.00;0.00;;;18.40;85.40;;;;;;5039128;28;20127;-67
2021/06/18 06:57:35;;;;;;;0.00;0.00;;;18.40;85.40;;;;;;5031109;28;20053;-67
2021/06/18 07:00:03;;;;;;;0.00;0.00;;;18.40;85.40;;;;;;5037706;28;20061;-68
2021/06/18 07:02:30;;;;;;;0.00;0.00;;;18.40;85.30;;;;;;5034091;28;20501;-67
2021/06/18 07:04:56;;;;;;;0.00;0.00;;;18.40;85.30;;;;;;5027696;28;20073;-68
2021/06/18 07:07:22;;;;;;;0.00;0.00;;;18.40;85.30;;;;;;5036203;28;20525;-68
2021/06/18 07:09:49;;;;;;;0.00;0.00;;;18.40;85.40;;;;;;5046128;28;20076;-67
2021/06/18 07:12:15;;;;;;;0.00;0.00;;;18.50;85.40;;;;;;5033805;28;20159;-68
2021/06/18 07:14:41;;;;;;;0.00;0.00;;;18.50;85.30;;;;;;5038458;28;20061;-67
2021/06/18 07:17:08;;;;;;;0.00;0.00;;;18.50;85.30;;;;;;5038204;28;20049;-67
2021/06/18 07:19:35;;;;;;;0.00;0.00;;;18.60;85.20;;;;;;5043552;28;20060;-68
2021/06/18 07:22:03;;;;;;;0.00;0.00;;;18.60;85.20;;;;;;5036312;28;20053;-68
2021/06/18 07:24:30;;;;;;;0.00;0.00;;;18.60;85.20;;;;;;5038082;28;20084;-67
2021/06/18 07:26:56;;;;;;;0.00;0.00;;;18.60;85.00;;;;;;5033561;28;20525;-67
2021/06/18 07:29:25;;;;;;;0.00;0.00;;;18.70;84.90;;;;;;5048051;28;20088;-68
2021/06/18 07:31:53;;;;;;;0.00;0.00;;;18.80;84.60;;;;;;5039169;28;20111;-67
2021/06/18 07:34:20;;;;;;;0.00;0.00;;;18.80;84.40;;;;;;5029422;28;20049;-67
2021/06/18 07:36:46;;;;;;;0.00;0.00;;;18.80;84.40;;;;;;5046856;28;20772;-68
2021/06/18 07:39:14;;;;;;;0.00;0.00;;;18.80;84.20;;;;;;5048058;28;20064;-68
2021/06/18 07:41:41;;;;;;;0.00;0.00;;;18.80;84.20;;;;;;5041445;28;20124;-67
2021/06/18 07:44:07;;;;;;;0.00;0.00;;;18.90;84.00;;;;;;5027925;28;20071;-68
2021/06/18 07:46:34;;;;;;;0.00;0.00;;;18.90;84.10;;;;;;5043560;28;20452;-68
2021/06/18 07:49:00;;;;;;;0.00;0.00;;;19.00;84.20;;;;;;5048362;28;20106;-68
2021/06/18 07:51:27;;;;;;;0.00;0.00;;;19.10;84.10;;;;;;5044627;28;20045;-67
2021/06/18 07:53:53;;;;;;;0.00;0.00;;;19.20;83.80;;;;;;5048201;28;20538;-68
2021/06/18 07:56:27;;;;;;;0.00;0.00;;;19.30;83.50;;;;;;5044513;28;20136;-68
2021/06/18 07:58:53;;;;;;;0.00;0.00;;;19.30;83.30;;;;;;5047821;28;20138;-68
2021/06/18 08:01:20;;;;;;;0.00;0.00;;;19.40;83.00;;;;;;5042097;28;20049;-68
2021/06/18 08:03:46;;;;;;;0.00;0.00;;;19.40;82.90;;;;;;5047760;28;20132;-68
2021/06/18 08:06:13;;;;;;;0.10;0.00;;;19.40;82.70;;;;;;5032777;28;20084;-67
2021/06/18 08:08:40;;;;;;;0.00;0.00;;;19.30;82.70;;;;;;5026770;28;20156;-68
2021/06/18 08:11:07;;;;;;;0.00;0.00;;;19.30;82.50;;;;;;5035095;28;20505;-68
2021/06/18 08:13:34;;;;;;;0.00;0.00;;;19.30;82.40;;;;;;5030328;28;20045;-68
2021/06/18 08:16:00;;;;;;;0.00;0.00;;;19.30;82.10;;;;;;5030146;28;20212;-68
2021/06/18 08:18:27;;;;;;;0.00;0.00;;;19.20;82.20;;;;;;5029468;28;20056;-68
2021/06/18 08:20:54;;;;;;;0.00;0.00;;;19.20;82.40;;;;;;5022389;28;20187;-68
2021/06/18 08:23:20;;;;;;;0.00;0.00;;;19.30;82.60;;;;;;5035736;28;20478;-68
2021/06/18 08:25:49;;;;;;;0.00;0.00;;;19.30;82.60;;;;;;5040611;28;20513;-67
2021/06/18 08:28:15;;;;;;;0.00;0.00;;;19.30;82.60;;;;;;5028907;28;20053;-68
2021/06/18 08:30:42;;;;;;;0.00;0.00;;;19.30;82.50;;;;;;5034609;28;20060;-68
2021/06/18 08:33:08;;;;;;;0.00;0.00;;;19.30;82.40;;;;;;5033638;28;20421;-68
2021/06/18 08:35:35;;;;;;;0.00;0.00;;;19.30;82.30;;;;;;5051326;28;20502;-68
2021/06/18 08:38:02;;;;;;;0.00;0.00;;;19.30;82.40;;;;;;5046372;28;20041;-68
2021/06/18 08:40:30;;;;;;;0.00;0.00;;;19.30;82.40;;;;;;5031989;28;20069;-67
2021/06/18 08:42:57;;;;;;;0.00;0.00;;;19.30;82.60;;;;;;5039098;28;20053;-68
2021/06/18 08:45:24;;;;;;;0.00;0.00;;;19.30;82.70;;;;;;5037990;28;20053;-67
2021/06/18 08:47:50;;;;;;;0.00;0.00;;;19.40;82.70;;;;;;5035531;28;20062;-68
2021/06/18 08:50:24;;;;;;;0.00;0.00;;;19.40;82.90;;;;;;5013634;28;20057;-68
2021/06/18 08:52:56;;;;;;;0.00;0.00;;;19.40;83.00;;;;;;5011746;28;20843;-67
2021/06/18 08:55:25;;;;;;;0.00;0.00;;;19.40;83.00;;;;;;5036724;28;20450;-68
2021/06/18 08:57:53;;;;;;;0.00;0.00;;;19.40;82.70;;;;;;5048238;28;20106;-68
2021/06/18 09:00:22;;;;;;;0.00;0.00;;;19.40;82.80;;;;;;5049449;28;20045;-68
2021/06/18 09:02:49;;;;;;;0.00;0.00;;;19.30;82.70;;;;;;5045384;28;20432;-68
2021/06/18 09:05:16;;;;;;;0.00;0.00;;;19.30;82.60;;;;;;5045914;28;20159;-67
2021/06/18 09:07:55;;;;;;;0.00;0.00;;;19.30;82.60;;;;;;5041032;28;20795;-68
2021/06/18 09:10:42;;;;;;;0.00;0.00;;;19.30;82.80;;;;;;5047367;28;20132;-68
2021/06/18 09:13:08;;;;;;;0.00;0.00;;;19.30;83.10;;;;;;5035981;28;20091;-68
2021/06/18 09:15:36;;;;;;;0.00;0.00;;;19.30;83.10;;;;;;5047586;28;20063;-68
2021/06/18 09:18:32;;;;;;;0.00;0.00;;;19.20;83.10;;;;;;5013224;28;20068;-68
2021/06/18 09:21:01;;;;;;;0.00;0.00;;;19.20;83.00;;;;;;5038111;28;20060;-68
2021/06/18 09:23:34;;;;;;;0.00;0.00;;;19.20;82.90;;;;;;5048304;28;20147;-68
2021/06/18 09:26:25;;;;;;;0.00;0.00;;;19.20;83.00;;;;;;5003616;28;20515;-68
2021/06/18 09:29:01;;;;;;;0.00;0.00;;;19.10;83.00;;;;;;5037773;28;20524;-68
2021/06/18 09:31:37;;;;;;;0.00;0.00;;;19.00;83.20;;;;;;5037705;28;20521;-68
2021/06/18 09:34:06;;;;;;;0.00;0.00;;;19.00;83.60;;;;;;5030415;28;20541;-67
2021/06/18 09:36:35;;;;;;;0.00;0.00;;;19.00;83.90;;;;;;5035562;28;20563;-67
2021/06/18 09:39:08;;;;;;;0.00;0.00;;;19.00;84.20;;;;;;5036436;28;20136;-67
2021/06/18 09:41:50;;;;;;;0.00;0.00;;;19.00;84.10;;;;;;5038621;28;20052;-68
2021/06/18 09:44:22;;;;;;;0.00;0.00;;;18.90;84.00;;;;;;5034888;28;20112;-67
2021/06/18 09:46:57;;;;;;;0.00;0.00;;;18.90;84.30;;;;;;5032669;28;20048;-68
2021/06/18 09:49:32;;;;;;;0.00;0.00;;;18.90;84.30;;;;;;5031880;28;20053;-68
2021/06/18 09:52:08;;;;;;;0.03;0.00;;;19.00;84.20;;;;;;5030310;28;20719;-68
2021/06/18 09:54:42;;;;;;;0.00;0.00;;;19.00;84.30;;;;;;5031104;28;20091;-72
2021/06/18 09:57:16;;;;;;;0.00;0.00;;;19.00;84.40;;;;;;5027282;28;20103;-72
2021/06/18 10:00:13;;;;;;;0.00;0.00;;;19.00;84.50;;;;;;5030918;28;20132;-72
2021/06/18 10:02:47;;;;;;;0.00;0.00;;;18.90;84.50;;;;;;5033411;28;20041;-72
2021/06/18 10:05:14;;;;;;;0.00;0.00;;;18.90;84.50;;;;;;5037898;28;20141;-72
2021/06/18 10:07:42;;;;;;;0.00;0.00;;;18.90;84.60;;;;;;5035910;28;20053;-72
2021/06/18 10:10:14;;;;;;;0.00;0.00;;;18.90;84.90;;;;;;5030659;28;20145;-71
2021/06/18 10:12:42;;;;;;;0.00;0.00;;;18.90;85.20;;;;;;5010842;28;20053;-72
2021/06/18 10:15:11;;;;;;;0.00;0.00;;;18.90;85.10;;;;;;5035716;28;20045;-71
2021/06/18 10:17:39;;;;;;;0.00;0.00;;;18.90;84.50;;;;;;5034787;28;20136;-71
2021/06/18 10:20:12;;;;;;;0.00;0.00;;;18.90;84.20;;;;;;5030542;28;20045;-72
2021/06/18 10:22:47;;;;;;;0.00;0.00;;;19.00;84.10;;;;;;5031256;28;20052;-73
2021/06/18 10:25:18;;;;;;;0.05;0.05;;;18.90;84.10;;;;;;5035882;28;20111;-72
2021/06/18 10:27:47;;;;;;;0.00;0.00;;;18.90;84.20;;;;;;5030226;28;20064;-72
2021/06/18 10:30:42;;;;;;;0.10;0.10;;;19.00;84.00;;;;;;5034173;28;20099;-71
2021/06/18 10:33:29;;;;;;;0.00;0.00;;;19.00;83.90;;;;;;5035205;28;20099;-72
2021/06/18 10:36:22;;;;;;;0.00;0.00;;;19.00;84.00;;;;;;5024438;28;20136;-72
2021/06/18 10:39:00;;;;;;;0.00;0.00;;;18.90;84.10;;;;;;5049672;28;20084;-72
2021/06/18 10:41:27;;;;;;;0.00;0.00;;;18.90;83.90;;;;;;5034943;28;20139;-72
2021/06/18 10:43:57;;;;;;;0.00;0.00;;;18.90;83.90;;;;;;5034829;28;20113;-71
2021/06/18 10:46:32;;;;;;;0.00;0.00;;;19.00;83.70;;;;;;5046887;28;20056;-72
2021/06/18 10:49:01;;;;;;;0.00;0.00;;;19.00;83.40;;;;;;5021435;28;20087;-72
2021/06/18 10:54:11;;;;;;;0.10;0.05;;;19.00;83.40;;;;;;5049429;28;20053;-72
2021/06/18 10:56:47;;;;;;;0.08;0.08;;;19.00;83.10;;;;;;5040615;28;20053;-72
2021/06/18 10:59:19;;;;;;;0.00;0.00;;;19.00;83.00;;;;;;5039037;28;20125;-72
2021/06/18 11:01:47;;;;;;;0.00;0.00;;;19.00;82.90;;;;;;5042603;28;20159;-72
2021/06/18 11:04:13;;;;;;;0.00;0.00;;;19.00;82.70;;;;;;5020015;28;20052;-72
2021/06/18 11:06:49;;;;;;;0.00;0.00;;;19.00;82.30;;;;;;5036936;28;20152;-72
2021/06/18 11:09:39;;;;;;;0.00;0.00;;;19.00;82.30;;;;;;5044463;28;20053;-72
2021/06/18 11:12:40;;;;;;;0.00;0.00;;;19.10;82.30;;;;;;5040344;28;20052;-72
2021/06/18 11:15:16;;;;;;;0.15;0.10;;;19.10;82.50;;;;;;5038930;28;20132;-72
2021/06/18 11:17:48;;;;;;;0.00;0.00;;;19.10;82.60;;;;;;5039283;28;20099;-71
2021/06/18 11:20:17;;;;;;;0.28;0.20;;;19.10;82.40;;;;;;5048426;28;20063;-71
2021/06/18 11:22:53;;;;;;;0.00;0.00;;;19.10;82.40;;;;;;5038278;28;20163;-73
2021/06/18 11:25:38;;;;;;;0.00;0.00;;;19.10;82.40;;;;;;5040364;28;20128;-72
2021/06/18 11:28:25;;;;;;;0.00;0.00;;;19.20;81.90;;;;;;5027757;28;20492;-72
2021/06/18 11:31:32;;;;;;;0.05;0.00;;;19.20;81.60;;;;;;5032242;28;20203;-71
2021/06/18 11:33:59;;;;;;;0.00;0.00;;;19.20;81.30;;;;;;4967304;28;20539;-72
2021/06/18 11:36:33;;;;;;;0.00;0.00;;;19.20;81.20;;;;;;4949865;28;20154;-72
2021/06/18 11:39:09;;;;;;;0.00;0.00;;;19.20;81.10;;;;;;4966982;28;20058;-72
2021/06/18 11:41:40;;;;;;;0.00;0.00;;;19.30;81.10;;;;;;4962729;28;20046;-72
2021/06/18 11:44:08;;;;;;;0.00;0.00;;;19.30;81.10;;;;;;4966496;28;20058;-72
2021/06/18 11:46:36;;;;;;;0.00;0.00;;;19.40;80.90;;;;;;4962590;28;20082;-72
2021/06/18 11:49:08;;;;;;;0.10;0.00;;;19.40;80.50;;;;;;4948154;28;20085;-72
2021/06/18 11:51:34;;;;;;;0.00;0.00;;;19.40;80.20;;;;;;4960708;28;20133;-72
2021/06/18 11:54:00;;;;;;;0.05;0.05;;;19.40;80.20;;;;;;4967061;28;20062;-72
2021/06/18 11:56:33;;;;;;;0.00;0.00;;;19.50;80.20;;;;;;4959853;28;20043;-72
2021/06/18 11:59:00;;;;;;;0.08;0.08;;;19.50;79.90;;;;;;4950982;28;20161;-72
2021/06/18 12:01:30;;;;;;;0.00;0.00;;;19.50;80.10;;;;;;4959110;28;20047;-72
2021/06/18 12:03:57;;;;;;;;;;;19.50;80.10;;;;;;4967383;28;20055;-72
2021/06/18 12:06:26;;;;;;;0.00;0.00;;;19.60;80.10;;;;;;4956296;28;20341;-72
2021/06/18 12:09:21;;;;;;;0.00;0.00;;;19.60;79.70;;;;;;4979442;28;20500;-72
2021/06/18 12:11:58;;;;;;;0.08;0.08;;;19.60;79.20;;;;;;5038403;28;20050;-72
2021/06/18 12:14:24;;;;;;;0.08;0.08;;;19.50;79.20;;;;;;5042367;28;20049;-72
2021/06/18 12:16:52;;;;;;;0.10;0.10;;;19.40;79.50;;;;;;5037471;28;20595;-72
2021/06/18 12:19:22;;;;;;;0.10;0.10;;;19.40;79.70;;;;;;5039278;28;20049;-71
2021/06/18 12:22:19;;;;;;;0.10;0.10;;;19.40;80.00;;;;;;5036189;28;20418;-71
2021/06/18 12:24:53;;;;;;;0.20;0.20;;;19.30;80.00;;;;;;5028394;28;20053;-73
2021/06/18 12:27:21;;;;;;;0.20;0.20;;;19.30;79.90;;;;;;5035855;28;20053;-72
2021/06/18 12:29:52;;;;;;;0.47;0.13;;;19.20;80.20;;;;;;5048068;28;20408;-72
2021/06/18 12:32:20;;;;;;;0.75;0.17;;;19.10;80.50;;;;;;5044698;28;20169;-72
2021/06/18 12:34:55;;;;;;;0.20;0.17;;;19.10;80.60;;;;;;5047677;28;20044;-72
2021/06/18 12:37:24;;;;;;;0.10;0.10;;;19.00;80.70;;;;;;5043532;28;20463;-72
2021/06/18 12:39:57;;;;;;;0.10;0.10;;;19.00;80.80;;;;;;5047420;28;20056;-72
2021/06/18 12:42:39;;;;;;;0.10;0.10;;;19.00;80.70;;;;;;5042404;28;20458;-72
2021/06/18 12:45:16;;;;;;;0.20;0.20;;;19.10;80.50;;;;;;5047543;28;20397;-71
2021/06/18 12:47:48;;;;;;;0.20;0.10;;;19.10;80.40;;;;;;5032074;28;20061;-71
2021/06/18 12:50:50;;;;;;;0.15;0.15;;;19.10;80.10;;;;;;5019703;28;20118;-72
2021/06/18 12:53:40;;;;;;;0.20;0.20;;;19.10;79.90;;;;;;5041543;28;20044;-71
2021/06/18 12:56:17;;;;;;;0.30;0.30;;;19.10;79.90;;;;;;5040773;28;20121;-72
2021/06/18 12:58:45;;;;;;;0.20;0.20;;;19.20;79.90;;;;;;5046988;28;20393;-72
2021/06/18 13:01:20;;;;;;;0.20;0.20;;;19.20;79.90;;;;;;5040792;28;20576;-71
2021/06/18 13:03:49;;;;;;;0.10;0.10;;;19.20;80.00;;;;;;5047133;28;20452;-71
2021/06/18 13:06:17;;;;;;;0.25;0.25;;;19.20;79.80;;;;;;5019707;28;20793;-71